createdAt,value
2022-10-05T00:02:28.909Z,969.76
2022-10-05T00:12:32.126Z,969.56
2022-10-05T00:17:33.914Z,969.48
2022-10-05T00:22:35.232Z,969.37
2022-10-05T00:27:37.138Z,969.24
2022-10-05T00:32:38.967Z,969.23
2022-10-05T00:37:40.532Z,969.19
2022-10-05T00:42:41.811Z,969.21
2022-10-05T00:47:43.479Z,969.2
2022-10-05T00:52:45.609Z,969.12
2022-10-05T00:57:47.386Z,969.13
2022-10-05T01:02:48.842Z,969.07
2022-10-05T01:07:50.174Z,969.07
2022-10-05T01:12:52.101Z,968.97
2022-10-05T01:17:54.179Z,968.97
2022-10-05T01:22:55.421Z,968.87
2022-10-05T01:27:57.182Z,968.85
2022-10-05T01:32:58.539Z,968.89
2022-10-05T01:38:00.768Z,968.88
2022-10-05T01:43:02.646Z,968.81
2022-10-05T01:48:04.291Z,968.83
2022-10-05T01:53:06.233Z,968.85
2022-10-05T01:58:07.480Z,968.83
2022-10-05T02:03:08.977Z,968.78
2022-10-05T02:08:10.191Z,968.75
2022-10-05T02:13:12.222Z,968.7
2022-10-05T02:18:14.228Z,968.64
2022-10-05T02:23:15.554Z,968.58
2022-10-05T02:28:17.781Z,968.6
2022-10-05T02:33:19.635Z,968.56
2022-10-05T02:38:21.015Z,968.51
2022-10-05T02:43:22.320Z,968.38
2022-10-05T02:48:24.360Z,968.34
2022-10-05T02:53:25.433Z,968.48
2022-10-05T02:58:26.724Z,968.44
2022-10-05T03:03:28.445Z,968.46
2022-10-05T03:08:30.027Z,968.6
2022-10-05T03:13:31.423Z,968.55
2022-10-05T03:18:33.120Z,968.64
2022-10-05T03:23:34.606Z,968.6
2022-10-05T03:28:36.587Z,968.61
2022-10-05T03:33:38.117Z,968.58
2022-10-05T03:38:40.155Z,968.56
2022-10-05T03:43:42.344Z,968.5
2022-10-05T03:48:43.728Z,968.38
2022-10-05T03:53:45.243Z,968.39
2022-10-05T03:58:47.014Z,968.43
2022-10-05T04:03:49.145Z,968.46
2022-10-05T04:08:50.171Z,968.5
2022-10-05T04:13:52.213Z,968.45
2022-10-05T04:18:54.352Z,968.45
2022-10-05T04:23:56.143Z,968.38
2022-10-05T04:28:57.500Z,968.41
2022-10-05T04:33:59.445Z,968.4
2022-10-05T04:39:00.745Z,968.37
2022-10-05T04:44:02.625Z,968.41
2022-10-05T04:49:03.996Z,968.39
2022-10-05T04:54:05.432Z,968.5
2022-10-05T04:59:07.038Z,968.56
2022-10-05T05:04:08.862Z,968.55
2022-10-05T05:09:10.578Z,968.58
2022-10-05T05:14:12.573Z,968.58
2022-10-05T05:19:14.727Z,968.58
2022-10-05T05:24:22.547Z,968.63
2022-10-05T05:29:24.066Z,968.69
2022-10-05T05:34:25.880Z,968.72
2022-10-05T05:39:27.541Z,968.68
2022-10-05T05:44:28.768Z,968.61
2022-10-05T05:49:30.546Z,968.6
2022-10-05T05:54:32.624Z,968.56
2022-10-05T05:59:34.222Z,968.58
2022-10-05T06:04:36.218Z,968.59
2022-10-05T06:09:37.562Z,968.67
2022-10-05T06:14:38.974Z,968.71
2022-10-05T06:19:40.523Z,968.73
2022-10-05T06:24:42.133Z,968.7
2022-10-05T06:29:44.233Z,968.69
2022-10-05T06:34:46.328Z,968.76
2022-10-05T06:39:48.186Z,968.75
2022-10-05T06:44:49.984Z,968.72
2022-10-05T06:49:51.314Z,968.73
2022-10-05T06:54:52.850Z,968.72
2022-10-05T06:59:54.558Z,968.73
2022-10-05T07:04:55.882Z,968.74
2022-10-05T07:09:57.827Z,968.83
2022-10-05T07:14:59.315Z,968.88
2022-10-05T07:20:01.319Z,968.84
2022-10-05T07:25:03.047Z,968.85
2022-10-05T07:30:04.624Z,968.92
2022-10-05T07:35:06.652Z,969
2022-10-05T07:40:07.979Z,969.07
2022-10-05T07:45:09.962Z,969.12
2022-10-05T07:50:12.128Z,969.13
2022-10-05T07:55:14.264Z,969.17
2022-10-05T08:00:16.277Z,969.15
2022-10-05T08:05:18.406Z,969.14
2022-10-05T08:10:19.566Z,969.2
2022-10-05T08:15:21.344Z,969.22
2022-10-05T08:20:23.189Z,969.23
2022-10-05T08:25:24.844Z,969.17
2022-10-05T08:30:26.712Z,969.21
2022-10-05T08:35:28.827Z,969.25
2022-10-05T08:40:30.134Z,969.31
2022-10-05T08:45:31.396Z,969.34
2022-10-05T08:50:33.451Z,969.34
2022-10-05T08:55:35.304Z,969.24
2022-10-05T09:00:36.618Z,969.21
2022-10-05T09:05:38.321Z,969.18
2022-10-05T09:10:40.377Z,969.18
2022-10-05T09:15:42.423Z,969.21
2022-10-05T09:20:44.088Z,969.2
2022-10-05T09:25:45.257Z,969.22
2022-10-05T09:30:46.865Z,969.26
2022-10-05T09:35:48.704Z,969.2
2022-10-05T09:40:50.288Z,969.18
2022-10-05T09:45:51.586Z,969.2
2022-10-05T09:50:53.184Z,969.19
2022-10-05T09:55:54.867Z,969.18
2022-10-05T10:01:03.564Z,969.17
2022-10-05T10:05:58.575Z,969.12
2022-10-05T10:11:00.100Z,969.09
2022-10-05T10:16:01.976Z,969.04
2022-10-05T10:21:02.958Z,969.03
2022-10-05T10:26:04.814Z,968.98
2022-10-05T10:31:06.920Z,968.99
2022-10-05T10:36:08.927Z,969
2022-10-05T10:41:10.826Z,969.03
2022-10-05T10:46:12.816Z,969.02
2022-10-05T10:51:14.608Z,968.98
2022-10-05T10:56:16.318Z,968.88
2022-10-05T11:01:17.748Z,968.89
2022-10-05T11:06:19.741Z,968.82
2022-10-05T11:11:21.155Z,968.82
2022-10-05T11:16:22.664Z,968.81
2022-10-05T11:21:24.037Z,968.72
2022-10-05T11:26:25.194Z,968.68
2022-10-05T11:31:27.079Z,968.63
2022-10-05T11:36:28.260Z,968.54
2022-10-05T11:41:30.301Z,968.48
2022-10-05T11:46:32.336Z,968.42
2022-10-05T11:51:34.119Z,968.35
2022-10-05T11:56:35.448Z,968.27
2022-10-05T12:01:37.193Z,968.23
2022-10-05T12:06:38.695Z,968.16
2022-10-05T12:11:40.662Z,968.11
2022-10-05T12:16:42.235Z,968.08
2022-10-05T12:21:43.384Z,968.03
2022-10-05T12:26:45.154Z,968
2022-10-05T12:31:46.888Z,967.93
2022-10-05T12:37:04.899Z,967.92
2022-10-05T12:41:50.343Z,967.88
2022-10-05T12:46:51.570Z,967.87
2022-10-05T12:51:53.657Z,967.84
2022-10-05T12:56:55.319Z,967.8
2022-10-05T13:01:57.474Z,967.74
2022-10-05T13:06:59.017Z,967.73
2022-10-05T13:12:00.353Z,967.72
2022-10-05T13:22:03.379Z,967.73
2022-10-05T13:52:12.590Z,967.66
2022-10-05T14:07:17.327Z,967.58
2022-10-05T14:12:18.474Z,967.54
2022-10-05T14:17:20.142Z,967.51
2022-10-05T14:27:23.509Z,967.46
2022-10-05T14:37:27.298Z,967.42
2022-10-05T14:42:28.674Z,967.38
2022-10-05T14:52:31.865Z,967.38
2022-10-05T14:57:33.148Z,967.31
2022-10-05T15:02:34.970Z,967.3
2022-10-05T15:07:36.505Z,967.29
2022-10-05T15:12:38.125Z,967.29
2022-10-05T15:17:40.255Z,967.27
2022-10-05T15:22:42.240Z,967.29
2022-10-05T15:27:43.666Z,967.26
2022-10-05T15:32:45.342Z,967.29
2022-10-05T15:37:46.771Z,967.27
2022-10-05T15:42:47.978Z,967.22
2022-10-05T15:47:49.234Z,967.26
2022-10-05T15:52:51.234Z,967.22
2022-10-05T15:57:52.951Z,967.25
2022-10-05T16:02:55.005Z,967.28
2022-10-05T16:07:56.960Z,967.25
2022-10-05T16:12:58.691Z,967.3
2022-10-05T16:18:00.812Z,967.31
2022-10-05T16:23:02.630Z,967.36
2022-10-05T16:28:05.615Z,967.37
2022-10-05T16:33:05.556Z,967.38
2022-10-05T16:38:07.473Z,967.39
2022-10-05T16:43:08.699Z,967.43
2022-10-05T16:48:10.661Z,967.46
2022-10-05T16:53:12.262Z,967.52
2022-10-05T16:58:14.046Z,967.57
2022-10-05T17:03:15.971Z,967.56
2022-10-05T17:08:17.528Z,967.62
2022-10-05T17:13:18.887Z,967.73
2022-10-05T17:18:21.211Z,967.75
2022-10-05T17:23:22.548Z,967.82
2022-10-05T17:28:24.734Z,967.87
2022-10-05T17:33:25.699Z,967.9
2022-10-05T17:38:27.990Z,967.98
2022-10-05T17:43:29.098Z,968.02
2022-10-05T17:48:31.022Z,968.01
2022-10-05T17:53:33.045Z,968.03
2022-10-05T17:58:34.717Z,968.07
2022-10-05T18:03:36.090Z,968.11
2022-10-05T18:08:37.585Z,968.17
2022-10-05T18:13:38.847Z,968.18
2022-10-05T18:18:40.528Z,968.23
2022-10-05T18:23:42.421Z,968.29
2022-10-05T18:28:43.858Z,968.37
2022-10-05T18:33:45.660Z,968.46
2022-10-05T18:38:47.061Z,968.51
2022-10-05T18:43:49.039Z,968.54
2022-10-05T18:48:50.828Z,968.61
2022-10-05T18:53:52.421Z,968.67
2022-10-05T18:58:56.833Z,968.75
2022-10-05T19:03:55.705Z,968.81
2022-10-05T19:08:57.372Z,968.81
2022-10-05T19:13:58.941Z,968.85
2022-10-05T19:19:01.043Z,968.89
2022-10-05T19:24:02.980Z,968.91
2022-10-05T19:29:04.109Z,968.96
2022-10-05T19:34:05.381Z,969.03
2022-10-05T19:39:06.735Z,969.12
2022-10-05T19:44:08.105Z,969.21
2022-10-05T19:49:09.352Z,969.27
2022-10-05T19:54:10.813Z,969.32
2022-10-05T19:59:12.575Z,969.3
2022-10-05T20:04:14.017Z,969.3
2022-10-05T20:09:16.299Z,969.33
2022-10-05T20:14:17.540Z,969.4
2022-10-05T20:19:19.000Z,969.47
2022-10-05T20:24:20.670Z,969.52
2022-10-05T20:29:22.560Z,969.6
2022-10-05T20:34:24.402Z,969.65
2022-10-05T20:39:26.341Z,969.65
2022-10-05T20:44:27.405Z,969.73
2022-10-05T20:49:28.586Z,969.8
2022-10-05T20:54:30.687Z,969.84
2022-10-05T20:59:32.319Z,969.9
2022-10-05T21:04:39.957Z,969.97
2022-10-05T21:09:35.525Z,969.97
2022-10-05T21:14:36.826Z,970.02
2022-10-05T21:19:38.867Z,970.05
2022-10-05T21:24:40.376Z,970.09
2022-10-05T21:29:41.901Z,970.14
2022-10-05T21:34:43.112Z,970.21
2022-10-05T21:39:44.353Z,970.3
2022-10-05T21:44:45.634Z,970.33
2022-10-05T21:49:47.296Z,970.35
2022-10-05T21:54:49.301Z,970.37
2022-10-05T21:59:50.841Z,970.43
2022-10-05T22:15:01.963Z,970.48
2022-10-05T22:20:03.435Z,970.53
2022-10-05T22:25:05.372Z,970.55
2022-10-05T22:30:07.057Z,970.67
2022-10-05T22:35:11.443Z,970.72
2022-10-05T22:40:10.067Z,970.7
2022-10-05T22:45:11.269Z,970.76
2022-10-05T22:50:12.670Z,970.8
2022-10-05T22:55:14.294Z,970.88
2022-10-05T23:00:16.327Z,970.89
2022-10-05T23:05:17.757Z,970.93
2022-10-05T23:10:19.839Z,971.02
2022-10-05T23:15:21.511Z,971.04
2022-10-05T23:20:22.705Z,971.1
2022-10-05T23:25:24.825Z,971.13
2022-10-05T23:30:26.305Z,971.19
2022-10-05T23:35:27.726Z,971.22
2022-10-05T23:40:29.756Z,971.32
2022-10-05T23:45:30.983Z,971.42
2022-10-05T23:50:33.139Z,971.47
2022-10-05T23:55:34.747Z,971.52
